Time;durP1;ratioP1;P1;durP2;ratioP2;P2;SDS_P1;SDS_P2;PMS_P1;PMS_P2;Temp;Humidity;BMP_temperature;BMP_pressure;BME280_temperature;BME280_humidity;BME280_pressure;Samples;Min_cycle;Max_cycle;Signal;HPM_P1;HPM_P2
2021/03/02 00:00:22;;;;;;;;;;;16.50;62.80;;;;;;5051081;28;19909;-74
2021/03/02 00:02:51;;;;;;;;;;;16.50;62.80;;;;;;5051584;28;20006;-74
2021/03/02 00:05:22;;;;;;;;;;;16.50;62.70;;;;;;5068135;28;20407;-74
2021/03/02 00:07:47;;;;;;;;;;;16.40;62.70;;;;;;5052686;28;20339;-74
2021/03/02 00:10:13;;;;;;;;;;;16.40;62.70;;;;;;5086728;28;19991;-74
2021/03/02 00:12:39;;;;;;;;;;;16.50;62.80;;;;;;5071706;28;19962;-74
2021/03/02 00:15:06;;;;;;;;;;;16.50;62.80;;;;;;5070803;28;19912;-74
2021/03/02 00:17:48;;;;;;;;;;;16.40;62.80;;;;;;5054223;28;19952;-74
2021/03/02 00:20:21;;;;;;;;;;;16.40;62.80;;;;;;5065645;28;19995;-74
2021/03/02 00:23:07;;;;;;;;;;;16.50;62.80;;;;;;5054225;28;20272;-74
2021/03/02 00:25:45;;;;;;;;;;;16.40;62.80;;;;;;5069335;28;20396;-74
2021/03/02 00:28:11;;;;;;;;;;;16.40;62.80;;;;;;5067211;28;19948;-74
2021/03/02 00:30:37;;;;;;;;;;;16.40;62.80;;;;;;5062412;28;19955;-75
2021/03/02 00:33:03;;;;;;;;;;;16.50;62.80;;;;;;5056498;28;19917;-74
2021/03/02 00:35:29;;;;;;;;;;;16.40;62.80;;;;;;5045849;28;19915;-74
2021/03/02 00:37:55;;;;;;;;;;;16.50;62.80;;;;;;5049917;28;20303;-74
2021/03/02 00:40:26;;;;;;;;;;;16.40;62.80;;;;;;5052626;28;19967;-74
2021/03/02 00:42:57;;;;;;;;;;;16.40;62.80;;;;;;5064027;28;19909;-74
2021/03/02 00:45:27;;;;;;;;;;;16.40;62.90;;;;;;5067585;28;19917;-74
2021/03/02 00:47:58;;;;;;;;;;;16.40;62.90;;;;;;5049249;28;19956;-74
2021/03/02 00:50:28;;;;;;;;;;;16.40;62.90;;;;;;5066850;28;20046;-74
2021/03/02 00:52:54;;;;;;;;;;;16.40;62.90;;;;;;5047952;28;19948;-74
2021/03/02 00:55:19;;;;;;;;;;;16.40;62.90;;;;;;5051710;28;20454;-75
2021/03/02 00:57:59;;;;;;;;;;;16.40;62.90;;;;;;5051637;28;19924;-74
2021/03/02 01:00:29;;;;;;;;;;;16.40;62.90;;;;;;5068205;28;19916;-74
2021/03/02 01:02:55;;;;;;;;;;;16.40;62.90;;;;;;5077852;28;19919;-75
2021/03/02 01:05:25;;;;;;;;;;;16.40;62.90;;;;;;5044710;28;19920;-74
2021/03/02 01:07:51;;;;;;;;;;;16.40;62.90;;;;;;5050759;28;19908;-75
2021/03/02 01:10:29;;;;;;;;;;;16.40;62.90;;;;;;5064330;28;19908;-74
2021/03/02 01:12:55;;;;;;;;;;;16.40;62.90;;;;;;5064280;28;19964;-74
2021/03/02 01:15:20;;;;;;;;;;;16.40;62.90;;;;;;5048698;28;20014;-74
2021/03/02 01:17:51;;;;;;;;;;;16.40;62.90;;;;;;5047692;28;20387;-74
2021/03/02 01:20:16;;;;;;;;;;;16.40;62.90;;;;;;5065622;28;20378;-74
2021/03/02 01:22:47;;;;;;;;;;;16.40;62.90;;;;;;5085712;28;19919;-74
2021/03/02 01:25:13;;;;;;;;;;;16.40;62.90;;;;;;5063585;28;19974;-74
2021/03/02 01:27:42;;;;;;;;;;;16.40;63.00;;;;;;5051714;28;19956;-74
2021/03/02 01:30:12;;;;;;;;;;;16.30;62.90;;;;;;5049026;28;19916;-74
2021/03/02 01:32:37;;;;;;;;;;;16.40;63.00;;;;;;5059307;28;20008;-74
2021/03/02 01:35:07;;;;;;;;;;;16.40;63.00;;;;;;5050140;28;20011;-74
2021/03/02 01:37:37;;;;;;;;;;;16.30;63.00;;;;;;5070935;28;19924;-75
2021/03/02 01:40:15;;;;;;;;;;;16.40;63.00;;;;;;5065671;28;19915;-74
2021/03/02 01:42:41;;;;;;;;;;;16.40;63.00;;;;;;5071502;28;19974;-73
2021/03/02 01:45:12;;;;;;;;;;;16.40;63.00;;;;;;5066175;28;19908;-74
2021/03/02 01:47:43;;;;;;;;;;;16.40;63.00;;;;;;5048577;28;19959;-74
2021/03/02 01:50:10;;;;;;;;;;;16.30;63.00;;;;;;5065805;28;20574;-75
2021/03/02 01:52:35;;;;;;;;;;;16.40;63.00;;;;;;5064530;28;19912;-75
2021/03/02 01:55:06;;;;;;;;;;;16.30;63.00;;;;;;5051508;28;19935;-74
2021/03/02 01:57:32;;;;;;;;;;;16.30;63.00;;;;;;5077681;28;19967;-74
2021/03/02 02:00:02;;;;;;;;;;;16.30;63.00;;;;;;5065280;28;19970;-74
2021/03/02 02:02:44;;;;;;;;;;;16.30;63.00;;;;;;5064473;28;19915;-74
2021/03/02 02:05:13;;;;;;;;;;;16.40;63.00;;;;;;5065719;28;19916;-75
2021/03/02 02:07:40;;;;;;;;;;;16.40;63.00;;;;;;5068079;28;19916;-74
2021/03/02 02:10:32;;;;;;;;;;;16.30;63.00;;;;;;5049945;28;19909;-74
2021/03/02 02:13:05;;;;;;;;;;;16.30;63.10;;;;;;5059615;28;19917;-75
2021/03/02 02:15:40;;;;;;;;;;;16.30;63.00;;;;;;5048327;28;19916;-74
2021/03/02 02:18:11;;;;;;;;;;;16.30;63.10;;;;;;5052786;28;19909;-74
2021/03/02 02:20:37;;;;;;;;;;;16.30;63.10;;;;;;5050585;28;19909;-74
2021/03/02 02:23:08;;;;;;;;;;;16.30;63.10;;;;;;5067466;28;19927;-74
2021/03/02 02:25:57;;;;;;;;;;;16.30;63.10;;;;;;5064655;28;19912;-74
2021/03/02 02:28:24;;;;;;;;;;;16.40;63.10;;;;;;5063688;28;19909;-74
2021/03/02 02:30:55;;;;;;;;;;;16.30;63.10;;;;;;5060726;28;19983;-74
2021/03/02 02:33:23;;;;;;;;;;;16.30;63.10;;;;;;5083448;28;19916;-74
2021/03/02 02:35:49;;;;;;;;;;;16.30;63.10;;;;;;5053074;28;19971;-75
2021/03/02 02:38:21;;;;;;;;;;;16.30;63.10;;;;;;5056015;28;20341;-74
2021/03/02 02:40:49;;;;;;;;;;;16.30;63.10;;;;;;5054515;28;19958;-74
2021/03/02 02:43:21;;;;;;;;;;;16.30;63.10;;;;;;5065297;28;19908;-74
2021/03/02 02:45:51;;;;;;;;;;;16.30;63.10;;;;;;5069522;28;19956;-74
2021/03/02 02:48:22;;;;;;;;;;;16.30;63.10;;;;;;5054567;28;19916;-75
2021/03/02 02:50:50;;;;;;;;;;;16.30;63.10;;;;;;5054055;28;20011;-75
2021/03/02 02:53:16;;;;;;;;;;;16.30;63.10;;;;;;5072204;28;19908;-74
2021/03/02 02:55:47;;;;;;;;;;;16.30;63.10;;;;;;5051883;28;19909;-73
2021/03/02 02:58:13;;;;;;;;;;;16.30;63.10;;;;;;5052499;28;20003;-75
2021/03/02 03:00:44;;;;;;;;;;;16.30;63.10;;;;;;5052430;28;19916;-74
2021/03/02 03:03:12;;;;;;;;;;;16.30;63.10;;;;;;5068961;28;19920;-75
2021/03/02 03:05:41;;;;;;;;;;;16.30;63.10;;;;;;5069548;28;19942;-74
2021/03/02 03:08:11;;;;;;;;;;;16.30;63.10;;;;;;5067620;28;19954;-74
2021/03/02 03:10:42;;;;;;;;;;;16.30;63.10;;;;;;5065272;28;19913;-74
2021/03/02 03:13:08;;;;;;;;;;;16.30;63.20;;;;;;5067829;28;19967;-74
2021/03/02 03:15:36;;;;;;;;;;;16.30;63.20;;;;;;5063771;28;19908;-74
2021/03/02 03:18:08;;;;;;;;;;;16.30;63.10;;;;;;5070737;28;19920;-74
2021/03/02 03:20:34;;;;;;;;;;;16.30;63.20;;;;;;5056791;28;20357;-74
2021/03/02 03:23:00;;;;;;;;;;;16.30;63.20;;;;;;5070647;28;19915;-74
2021/03/02 03:25:31;;;;;;;;;;;16.30;63.20;;;;;;5054225;28;20014;-74
2021/03/02 03:27:59;;;;;;;;;;;16.30;63.20;;;;;;5067405;28;20008;-74
2021/03/02 03:30:27;;;;;;;;;;;16.30;63.20;;;;;;5034669;28;20273;-74
2021/03/02 03:32:54;;;;;;;;;;;16.30;63.20;;;;;;5039404;28;20451;-74
2021/03/02 03:35:26;;;;;;;;;;;16.30;63.20;;;;;;5047572;28;19908;-74
2021/03/02 03:38:10;;;;;;;;;;;16.30;63.20;;;;;;5032445;28;19921;-73
2021/03/02 03:40:36;;;;;;;;;;;16.30;63.20;;;;;;5050582;28;20369;-74
2021/03/02 03:43:02;;;;;;;;;;;16.30;63.20;;;;;;5031239;28;19996;-74
2021/03/02 03:45:27;;;;;;;;;;;16.30;63.20;;;;;;5026306;28;20350;-74
2021/03/02 03:47:53;;;;;;;;;;;16.30;63.20;;;;;;5030408;28;20323;-74
2021/03/02 03:50:24;;;;;;;;;;;16.30;63.20;;;;;;5035205;28;19915;-74
2021/03/02 03:53:01;;;;;;;;;;;16.30;63.20;;;;;;5043541;28;20374;-74
2021/03/02 03:55:30;;;;;;;;;;;16.30;63.20;;;;;;5032088;28;19909;-74
2021/03/02 03:58:00;;;;;;;;;;;16.30;63.20;;;;;;5035293;28;19909;-73
2021/03/02 04:00:26;;;;;;;;;;;16.30;63.20;;;;;;5029735;28;19958;-74
2021/03/02 04:02:55;;;;;;;;;;;16.30;63.20;;;;;;5044358;28;19913;-74
2021/03/02 04:05:20;;;;;;;;;;;16.30;63.20;;;;;;5052529;28;19908;-74
2021/03/02 04:07:46;;;;;;;;;;;16.30;63.20;;;;;;5062125;28;20364;-74
2021/03/02 04:10:12;;;;;;;;;;;16.30;63.30;;;;;;5048707;28;20316;-74
2021/03/02 04:12:42;;;;;;;;;;;16.30;63.20;;;;;;5045707;28;19913;-74
2021/03/02 04:15:09;;;;;;;;;;;16.30;63.30;;;;;;5028723;28;19920;-74
2021/03/02 04:17:35;;;;;;;;;;;16.30;63.30;;;;;;5049323;28;19912;-74
2021/03/02 04:20:01;;;;;;;;;;;16.30;63.20;;;;;;5042140;28;19927;-74
2021/03/02 04:22:27;;;;;;;;;;;16.30;63.30;;;;;;5026195;28;19917;-73
2021/03/02 04:24:53;;;;;;;;;;;16.30;63.30;;;;;;5044794;28;19925;-74
2021/03/02 04:27:18;;;;;;;;;;;16.30;63.30;;;;;;5040389;28;20120;-74
2021/03/02 04:29:44;;;;;;;;;;;16.30;63.30;;;;;;5030235;28;19920;-74
2021/03/02 04:32:09;;;;;;;;;;;16.30;63.30;;;;;;5048806;28;19987;-74
2021/03/02 04:34:35;;;;;;;;;;;16.30;63.30;;;;;;5028396;28;20361;-74
2021/03/02 04:37:03;;;;;;;;;;;16.20;63.30;;;;;;5044263;28;19995;-74
2021/03/02 04:39:28;;;;;;;;;;;16.20;63.30;;;;;;5024715;28;20780;-74
2021/03/02 04:41:54;;;;;;;;;;;16.20;63.30;;;;;;5046605;28;20011;-73
2021/03/02 04:44:19;;;;;;;;;;;16.20;63.30;;;;;;5032726;28;19916;-74
2021/03/02 04:46:45;;;;;;;;;;;16.20;63.30;;;;;;5047255;28;20416;-74
2021/03/02 04:49:10;;;;;;;;;;;16.20;63.30;;;;;;5047140;28;19912;-74
2021/03/02 04:51:36;;;;;;;;;;;16.30;63.30;;;;;;5029090;28;20357;-74
2021/03/02 04:54:02;;;;;;;;;;;16.20;63.30;;;;;;5031669;28;19913;-73
2021/03/02 04:56:27;;;;;;;;;;;16.20;63.40;;;;;;5031596;28;19909;-75
2021/03/02 04:58:53;;;;;;;;;;;16.20;63.40;;;;;;5031366;28;19908;-74
2021/03/02 05:01:18;;;;;;;;;;;16.20;63.40;;;;;;5046969;28;19916;-74
2021/03/02 05:03:48;;;;;;;;;;;16.20;63.40;;;;;;5029882;28;19974;-74
2021/03/02 05:06:44;;;;;;;;;;;16.20;63.40;;;;;;5033101;28;19936;-74
2021/03/02 05:09:10;;;;;;;;;;;16.20;63.40;;;;;;5048456;28;19921;-74
2021/03/02 05:11:35;;;;;;;;;;;16.20;63.30;;;;;;5044619;28;19919;-74
2021/03/02 05:14:01;;;;;;;;;;;16.20;63.40;;;;;;5028047;28;19912;-74
2021/03/02 05:16:26;;;;;;;;;;;16.20;63.40;;;;;;5030350;28;19913;-74
2021/03/02 05:18:57;;;;;;;;;;;16.20;63.40;;;;;;5048230;28;20000;-73
2021/03/02 05:21:28;;;;;;;;;;;16.20;63.40;;;;;;5045683;28;20016;-74
2021/03/02 05:23:53;;;;;;;;;;;16.20;63.40;;;;;;5030626;28;19960;-74
2021/03/02 05:26:21;;;;;;;;;;;16.20;63.40;;;;;;5046238;28;19936;-74
2021/03/02 05:28:57;;;;;;;;;;;16.20;63.40;;;;;;5032970;28;19920;-74
2021/03/02 05:31:23;;;;;;;;;;;16.20;63.40;;;;;;5045109;28;19924;-74
2021/03/02 05:33:48;;;;;;;;;;;16.20;63.40;;;;;;5060880;28;19993;-74
2021/03/02 05:36:14;;;;;;;;;;;16.20;63.40;;;;;;5048945;28;19920;-74
2021/03/02 05:38:39;;;;;;;;;;;16.20;63.40;;;;;;5063712;28;19939;-74
2021/03/02 05:41:07;;;;;;;;;;;16.20;63.40;;;;;;5063854;28;19915;-74
2021/03/02 05:43:35;;;;;;;;;;;16.20;63.40;;;;;;5068414;28;19915;-74
2021/03/02 05:46:01;;;;;;;;;;;16.20;63.40;;;;;;5064767;28;20244;-74
2021/03/02 05:48:29;;;;;;;;;;;16.20;63.40;;;;;;5068403;28;19947;-74
2021/03/02 05:50:59;;;;;;;;;;;16.20;63.40;;;;;;5052754;28;20194;-74
2021/03/02 05:53:25;;;;;;;;;;;16.20;63.40;;;;;;5068552;28;19952;-74
2021/03/02 05:55:50;;;;;;;;;;;16.20;63.40;;;;;;5067804;28;19974;-74
2021/03/02 05:58:16;;;;;;;;;;;16.20;63.40;;;;;;5066195;28;19909;-74
2021/03/02 06:00:42;;;;;;;;;;;16.20;63.40;;;;;;5052709;28;20000;-75
2021/03/02 06:03:08;;;;;;;;;;;16.20;63.40;;;;;;5047517;28;19909;-74
2021/03/02 06:05:34;;;;;;;;;;;16.20;63.40;;;;;;5066210;28;19908;-74
2021/03/02 06:08:00;;;;;;;;;;;16.20;63.40;;;;;;5055161;28;19915;-74
2021/03/02 06:10:29;;;;;;;;;;;16.20;63.40;;;;;;5056792;28;19908;-74
2021/03/02 06:12:56;;;;;;;;;;;16.20;63.40;;;;;;5068006;28;19936;-74
2021/03/02 06:15:22;;;;;;;;;;;16.20;63.40;;;;;;5070339;28;19909;-73
2021/03/02 06:18:15;;;;;;;;;;;16.20;63.30;;;;;;5069342;28;19908;-74
2021/03/02 06:20:41;;;;;;;;;;;16.20;63.30;;;;;;5049680;28;20348;-74
2021/03/02 06:23:30;;;;;;;;;;;16.20;63.30;;;;;;5077090;28;19915;-74
2021/03/02 06:26:07;;;;;;;;;;;16.20;63.30;;;;;;5071276;28;19908;-74
2021/03/02 06:28:38;;;;;;;;;;;16.20;63.30;;;;;;5055126;28;19960;-75
2021/03/02 06:31:03;;;;;;;;;;;16.20;63.30;;;;;;5049459;28;19959;-75
2021/03/02 06:33:29;;;;;;;;;;;16.20;63.30;;;;;;5053414;28;19921;-75
2021/03/02 06:35:54;;;;;;;;;;;16.20;63.30;;;;;;5049195;28;20323;-73
2021/03/02 06:38:30;;;;;;;;;;;16.20;63.30;;;;;;5072993;28;19959;-72
2021/03/02 06:40:56;;;;;;;;;;;16.20;63.30;;;;;;5082166;28;20006;-72
2021/03/02 06:43:36;;;;;;;;;;;16.20;63.30;;;;;;5069738;28;19952;-72
2021/03/02 06:46:09;;;;;;;;;;;16.20;63.30;;;;;;5050399;28;19990;-72
2021/03/02 06:48:51;;;;;;;;;;;16.20;63.30;;;;;;5068807;28;19920;-72
2021/03/02 06:51:30;;;;;;;;;;;16.20;63.30;;;;;;5045489;28;19925;-72
2021/03/02 06:54:15;;;;;;;;;;;16.20;63.30;;;;;;5068761;28;20732;-72
2021/03/02 06:56:41;;;;;;;;;;;16.30;63.20;;;;;;5050138;28;19913;-72
2021/03/02 06:59:10;;;;;;;;;;;16.30;63.20;;;;;;5066569;28;20342;-72
2021/03/02 07:01:36;;;;;;;;;;;16.20;63.20;;;;;;5051017;28;20014;-72
2021/03/02 07:04:13;;;;;;;;;;;16.20;63.20;;;;;;5052679;28;19999;-73
2021/03/02 07:06:39;;;;;;;;;;;16.20;63.20;;;;;;5067017;28;19908;-72
2021/03/02 07:09:17;;;;;;;;;;;16.20;63.20;;;;;;5055692;28;19912;-72
2021/03/02 07:11:44;;;;;;;;;;;16.30;63.20;;;;;;5048607;28;20718;-72
2021/03/02 07:14:11;;;;;;;;;;;16.30;63.20;;;;;;5066017;28;19912;-72
2021/03/02 07:16:46;;;;;;;;;;;16.30;63.20;;;;;;5064492;28;19908;-73
2021/03/02 07:19:16;;;;;;;;;;;16.20;63.20;;;;;;5045935;28;20273;-72
2021/03/02 07:21:44;;;;;;;;;;;16.20;63.10;;;;;;5050098;28;19909;-72
2021/03/02 07:24:12;;;;;;;;;;;16.30;63.10;;;;;;5046040;28;19913;-73
2021/03/02 07:26:39;;;;;;;;;;;16.30;63.10;;;;;;5065902;28;20245;-72
2021/03/02 07:29:11;;;;;;;;;;;16.30;63.10;;;;;;5051904;28;19970;-72
2021/03/02 07:31:37;;;;;;;;;;;16.30;63.10;;;;;;5066295;28;19913;-72
2021/03/02 07:34:07;;;;;;;;;;;16.20;63.10;;;;;;5051825;28;20379;-72
2021/03/02 07:36:36;;;;;;;;;;;16.30;63.10;;;;;;5054348;28;19908;-72
2021/03/02 07:39:21;;;;;;;;;;;16.30;63.10;;;;;;5070635;28;19909;-71
2021/03/02 07:41:47;;;;;;;;;;;16.30;63.10;;;;;;5065391;28;19908;-72
2021/03/02 07:44:13;;;;;;;;;;;16.30;63.00;;;;;;5064261;28;20299;-71
2021/03/02 07:46:41;;;;;;;;;;;16.30;63.00;;;;;;5062870;28;19925;-71
2021/03/02 07:49:22;;;;;;;;;;;16.30;63.00;;;;;;5047722;28;19921;-72
2021/03/02 07:51:57;;;;;;;;;;;16.30;63.00;;;;;;5070025;28;20357;-73
2021/03/02 07:54:22;;;;;;;;;;;16.30;63.00;;;;;;5053721;28;19920;-73
2021/03/02 07:57:17;;;;;;;;;;;16.30;63.00;;;;;;5051526;28;20365;-73
2021/03/02 08:00:02;;;;;;;;;;;16.30;63.00;;;;;;5063426;28;19912;-73
2021/03/02 08:02:28;;;;;;;;;;;16.30;63.00;;;;;;5065193;28;19916;-73
2021/03/02 08:04:55;;;;;;;;;;;16.30;63.00;;;;;;5064485;28;19920;-73
2021/03/02 08:07:23;;;;;;;;;;;16.30;62.90;;;;;;5072909;28;19916;-73
2021/03/02 08:09:50;;;;;;;;;;;16.30;62.90;;;;;;5057649;28;19909;-74
2021/03/02 08:12:35;;;;;;;;;;;16.30;62.90;;;;;;5048567;28;19912;-73
2021/03/02 08:15:20;;;;;;;;;;;16.30;62.90;;;;;;5053662;28;19913;-74
2021/03/02 08:17:46;;;;;;;;;;;16.30;62.90;;;;;;5048066;28;19992;-73
2021/03/02 08:20:12;;;;;;;;;;;16.30;62.80;;;;;;5065206;28;20042;-74
2021/03/02 08:22:40;;;;;;;;;;;16.30;62.90;;;;;;5069092;28;19970;-73
2021/03/02 08:25:21;;;;;;;;;;;16.30;62.80;;;;;;5046589;28;19913;-74
2021/03/02 08:27:51;;;;;;;;;;;16.30;62.80;;;;;;5051750;28;20051;-74
2021/03/02 08:30:23;;;;;;;;;;;16.30;62.80;;;;;;5047889;28;19924;-74
2021/03/02 08:32:49;;;;;;;;;;;16.30;62.80;;;;;;5041295;28;20350;-74
2021/03/02 08:35:25;;;;;;;;;;;16.30;62.80;;;;;;5030150;28;25181;-74
2021/03/02 08:37:50;;;;;;;;;;;16.30;62.80;;;;;;5029908;28;19930;-74
2021/03/02 08:40:22;;;;;;;;;;;16.30;62.80;;;;;;5042131;28;20007;-74
2021/03/02 08:43:11;;;;;;;;;;;16.30;62.70;;;;;;5049672;28;19909;-73
2021/03/02 08:45:56;;;;;;;;;;;16.30;62.70;;;;;;5026393;28;19958;-74
2021/03/02 08:48:36;;;;;;;;;;;16.30;62.70;;;;;;5023053;28;19931;-73
2021/03/02 08:51:10;;;;;;;;;;;16.30;62.70;;;;;;5025497;28;20042;-73
2021/03/02 08:53:42;;;;;;;;;;;16.30;62.60;;;;;;5024568;28;20050;-74
2021/03/02 08:56:19;;;;;;;;;;;16.40;62.60;;;;;;5043067;28;20003;-72
2021/03/02 08:58:54;;;;;;;;;;;16.30;62.60;;;;;;5027010;28;19921;-74
2021/03/02 09:01:19;;;;;;;;;;;16.40;62.60;;;;;;5031565;28;19931;-74
2021/03/02 09:03:50;;;;;;;;;;;16.30;62.60;;;;;;5029473;28;20370;-74
2021/03/02 09:06:17;;;;;;;;;;;16.40;62.60;;;;;;5032596;28;19913;-74
2021/03/02 09:08:50;;;;;;;;;;;16.40;62.50;;;;;;5046418;28;19909;-73
2021/03/02 09:11:27;;;;;;;;;;;16.40;62.50;;;;;;5031514;28;19932;-74
2021/03/02 09:13:58;;;;;;;;;;;16.40;62.50;;;;;;5032522;28;19956;-74
2021/03/02 09:16:31;;;;;;;;;;;16.40;62.50;;;;;;5027431;28;19915;-74
2021/03/02 09:18:58;;;;;;;;;;;16.40;62.50;;;;;;5040875;28;19924;-74
2021/03/02 09:21:23;;;;;;;;;;;16.40;62.50;;;;;;5049180;28;19963;-74
2021/03/02 09:23:49;;;;;;;;;;;16.40;62.50;;;;;;5033751;28;19924;-73
2021/03/02 09:26:32;;;;;;;;;;;16.40;62.40;;;;;;5030448;28;19919;-74
2021/03/02 09:29:01;;;;;;;;;;;16.40;62.40;;;;;;5038398;28;20003;-74
2021/03/02 09:31:32;;;;;;;;;;;16.40;62.40;;;;;;5062767;28;19919;-73
2021/03/02 09:33:59;;;;;;;;;;;16.40;62.40;;;;;;5063932;28;19920;-74
2021/03/02 09:36:25;;;;;;;;;;;16.40;62.40;;;;;;5046095;28;19920;-74
2021/03/02 09:38:52;;;;;;;;;;;16.50;62.40;;;;;;5050216;28;19909;-74
2021/03/02 09:41:31;;;;;;;;;;;16.40;62.30;;;;;;5056210;28;19954;-73
2021/03/02 09:44:16;;;;;;;;;;;16.50;62.30;;;;;;5079094;28;20264;-74
2021/03/02 09:46:42;;;;;;;;;;;16.40;62.30;;;;;;5054784;28;19912;-74
2021/03/02 09:49:07;;;;;;;;;;;16.50;62.30;;;;;;5049190;28;19920;-74
2021/03/02 09:51:34;;;;;;;;;;;16.50;62.20;;;;;;5052231;28;19912;-74
2021/03/02 09:54:15;;;;;;;;;;;16.50;62.20;;;;;;5055691;28;20394;-74
2021/03/02 09:56:44;;;;;;;;;;;16.50;62.20;;;;;;5075676;28;19909;-74
2021/03/02 09:59:10;;;;;;;;;;;16.50;62.10;;;;;;5073923;28;20026;-74
2021/03/02 10:01:35;;;;;;;;;;;16.50;62.10;;;;;;5065866;28;20001;-75
2021/03/02 10:04:05;;;;;;;;;;;16.60;60.40;;;;;;5072131;28;19908;-75
2021/03/02 10:06:30;;;;;;;;;;;16.60;60.10;;;;;;5057150;28;19999;-75
2021/03/02 10:08:56;;;;;;;;;;;16.70;59.60;;;;;;5043788;28;20012;-75
2021/03/02 10:11:21;;;;;;;;;;;16.70;59.10;;;;;;5056770;28;20003;-75
2021/03/02 10:13:53;;;;;;;;;;;16.80;58.40;;;;;;5054824;28;20356;-75
2021/03/02 10:16:19;;;;;;;;;;;16.80;58.20;;;;;;5065494;28;19922;-74
2021/03/02 10:19:05;;;;;;;;;;;16.80;57.70;;;;;;5034846;28;20194;-75
2021/03/02 10:21:36;;;;;;;;;;;16.80;57.40;;;;;;5045476;28;19924;-75
2021/03/02 10:24:07;;;;;;;;;;;16.80;57.00;;;;;;5053987;28;20011;-75
2021/03/02 10:26:33;;;;;;;;;;;16.80;56.70;;;;;;5050446;28;19909;-73
2021/03/02 10:29:00;;;;;;;;;;;16.80;57.70;;;;;;5070398;28;19921;-74
2021/03/02 10:31:26;;;;;;;;;;;16.80;58.00;;;;;;5051162;28;20264;-73
2021/03/02 10:33:51;;;;;;;;;;;16.80;58.40;;;;;;5051408;28;19916;-74
2021/03/02 10:36:21;;;;;;;;;;;16.80;58.60;;;;;;5064460;28;19999;-73
2021/03/02 10:38:47;;;;;;;;;;;16.80;58.90;;;;;;5052225;28;19921;-74
2021/03/02 10:41:13;;;;;;;;;;;16.80;59.00;;;;;;5068406;28;19927;-74
2021/03/02 10:43:38;;;;;;;;;;;16.70;59.10;;;;;;5071448;28;19921;-73
2021/03/02 10:46:04;;;;;;;;;;;16.80;59.20;;;;;;5066546;28;20007;-74
2021/03/02 10:48:29;;;;;;;;;;;16.70;59.40;;;;;;5077416;28;19917;-74
2021/03/02 10:50:55;;;;;;;;;;;16.80;59.40;;;;;;5075707;28;19923;-74
2021/03/02 10:53:20;;;;;;;;;;;16.70;59.50;;;;;;5078222;28;19973;-73
2021/03/02 10:55:46;;;;;;;;;;;16.70;59.50;;;;;;5067342;28;19912;-74
2021/03/02 10:58:11;;;;;;;;;;;16.70;59.50;;;;;;5067572;28;19912;-73
2021/03/02 11:00:37;;;;;;;;;;;16.70;59.60;;;;;;5054563;28;20353;-74
2021/03/02 11:03:03;;;;;;;;;;;16.70;59.70;;;;;;5050074;28;19956;-74
2021/03/02 11:05:29;;;;;;;;;;;16.70;59.70;;;;;;5050255;28;19920;-73
2021/03/02 11:07:54;;;;;;;;;;;16.70;59.70;;;;;;5060673;28;20128;-74
2021/03/02 11:10:20;;;;;;;;;;;16.70;59.80;;;;;;5064081;28;19916;-74
2021/03/02 11:12:45;;;;;;;;;;;16.70;59.80;;;;;;5072880;28;20341;-73
2021/03/02 11:15:12;;;;;;;;;;;16.70;59.80;;;;;;5068226;28;19999;-74
2021/03/02 11:17:38;;;;;;;;;;;16.70;59.90;;;;;;5049532;28;19924;-74
2021/03/02 11:20:07;;;;;;;;;;;16.70;59.90;;;;;;5051843;28;19926;-74
2021/03/02 11:22:33;;;;;;;;;;;16.70;59.90;;;;;;5069220;28;20389;-73
2021/03/02 11:24:59;;;;;;;;;;;16.70;59.90;;;;;;5069746;28;20035;-74
2021/03/02 11:27:24;;;;;;;;;;;16.70;59.90;;;;;;5052551;28;19931;-74
2021/03/02 11:29:50;;;;;;;;;;;16.80;59.90;;;;;;5053790;28;20346;-73
2021/03/02 11:32:15;;;;;;;;;;;16.80;59.90;;;;;;5065149;28;20257;-74
2021/03/02 11:34:41;;;;;;;;;;;16.80;59.90;;;;;;5064695;28;19920;-74
2021/03/02 11:37:07;;;;;;;;;;;16.80;59.90;;;;;;5069912;28;19944;-74
2021/03/02 11:39:32;;;;;;;;;;;16.80;59.90;;;;;;5040545;28;20351;-74
2021/03/02 11:41:58;;;;;;;;;;;16.80;59.90;;;;;;5062518;28;19909;-74
2021/03/02 11:44:23;;;;;;;;;;;16.80;59.90;;;;;;5054223;28;19932;-74
2021/03/02 11:46:49;;;;;;;;;;;16.80;59.90;;;;;;5069152;28;20345;-75
2021/03/02 11:49:14;;;;;;;;;;;16.80;59.90;;;;;;5070237;28;19963;-74
2021/03/02 11:51:40;;;;;;;;;;;16.80;60.00;;;;;;5077821;28;19951;-74
2021/03/02 11:54:05;;;;;;;;;;;16.80;60.00;;;;;;5068642;28;19920;-74
2021/03/02 11:56:36;;;;;;;;;;;16.80;60.00;;;;;;5069215;28;19917;-74
2021/03/02 11:59:01;;;;;;;;;;;16.80;59.90;;;;;;5066443;28;19909;-74
2021/03/02 12:01:32;;;;;;;;;;;16.80;59.90;;;;;;5060493;28;19909;-74
2021/03/02 12:03:57;;;;;;;;;;;16.80;59.90;;;;;;5062657;28;19921;-74
2021/03/02 12:06:23;;;;;;;;;;;16.80;59.90;;;;;;5047577;28;19927;-75
2021/03/02 12:08:48;;;;;;;;;;;16.80;59.90;;;;;;5065382;28;19917;-75
2021/03/02 12:11:14;;;;;;;;;;;16.80;59.90;;;;;;5059546;28;19951;-73
2021/03/02 12:13:39;;;;;;;;;;;16.80;59.90;;;;;;5048823;28;19924;-73
2021/03/02 12:16:05;;;;;;;;;;;16.80;59.90;;;;;;5061949;28;19920;-73
2021/03/02 12:18:31;;;;;;;;;;;16.80;60.00;;;;;;5062831;28;19924;-74
2021/03/02 12:20:56;;;;;;;;;;;16.80;59.90;;;;;;5049329;28;19908;-75
2021/03/02 12:23:22;;;;;;;;;;;16.80;59.90;;;;;;5067503;28;19942;-75
2021/03/02 12:25:47;;;;;;;;;;;16.80;59.90;;;;;;5054084;28;20575;-73
2021/03/02 12:28:13;;;;;;;;;;;16.80;59.90;;;;;;5083274;28;20316;-73
2021/03/02 12:30:39;;;;;;;;;;;16.80;59.90;;;;;;5044644;28;19909;-73
2021/03/02 12:33:05;;;;;;;;;;;16.80;59.90;;;;;;5026734;28;19931;-74
2021/03/02 12:35:31;;;;;;;;;;;16.80;59.90;;;;;;5032006;28;19909;-73
2021/03/02 12:37:56;;;;;;;;;;;16.90;59.90;;;;;;5029039;28;19909;-74
2021/03/02 12:40:22;;;;;;;;;;;16.80;59.90;;;;;;5034242;28;20335;-74
2021/03/02 12:42:47;;;;;;;;;;;16.80;59.90;;;;;;5031875;28;19909;-74
2021/03/02 12:45:13;;;;;;;;;;;16.90;59.80;;;;;;5032236;28;19909;-74
2021/03/02 12:47:39;;;;;;;;;;;16.80;59.80;;;;;;5047596;28;19913;-75
2021/03/02 12:50:08;;;;;;;;;;;16.90;59.90;;;;;;5048638;28;19912;-73
2021/03/02 12:52:37;;;;;;;;;;;16.90;59.90;;;;;;5050561;28;20296;-74
2021/03/02 12:55:03;;;;;;;;;;;16.90;59.90;;;;;;5046464;28;20010;-74
2021/03/02 12:57:29;;;;;;;;;;;16.90;59.90;;;;;;5032570;28;20050;-74
2021/03/02 12:59:55;;;;;;;;;;;16.90;59.90;;;;;;5050693;28;19992;-73
2021/03/02 13:02:20;;;;;;;;;;;16.90;59.90;;;;;;5047055;28;19910;-74
2021/03/02 13:04:46;;;;;;;;;;;16.90;59.80;;;;;;5045666;28;20365;-74
2021/03/02 13:07:14;;;;;;;;;;;16.90;59.80;;;;;;5052131;28;19913;-74
2021/03/02 13:09:40;;;;;;;;;;;16.90;59.80;;;;;;5048410;28;19909;-74
2021/03/02 13:12:06;;;;;;;;;;;16.90;59.80;;;;;;5046977;28;19913;-74
2021/03/02 13:14:32;;;;;;;;;;;16.90;59.90;;;;;;5047765;28;19920;-74
2021/03/02 13:16:58;;;;;;;;;;;16.90;59.80;;;;;;5055900;28;19909;-74
2021/03/02 13:19:24;;;;;;;;;;;16.90;59.80;;;;;;5050124;28;19956;-74
2021/03/02 13:21:49;;;;;;;;;;;16.90;59.80;;;;;;5033715;28;19908;-74
2021/03/02 13:24:15;;;;;;;;;;;16.90;59.80;;;;;;5057028;28;19921;-74
2021/03/02 13:26:44;;;;;;;;;;;16.90;59.80;;;;;;5042441;28;19913;-74
2021/03/02 13:29:11;;;;;;;;;;;16.90;59.80;;;;;;5056066;28;19920;-74
2021/03/02 13:31:38;;;;;;;;;;;16.90;59.80;;;;;;5066875;28;20349;-74
2021/03/02 13:34:10;;;;;;;;;;;16.90;59.80;;;;;;5049870;28;19912;-74
2021/03/02 13:36:37;;;;;;;;;;;16.90;59.80;;;;;;5065239;28;21030;-74
2021/03/02 13:39:02;;;;;;;;;;;16.90;59.80;;;;;;5068692;28;19954;-74
2021/03/02 13:41:30;;;;;;;;;;;16.90;59.80;;;;;;5050581;28;19909;-74
2021/03/02 13:43:58;;;;;;;;;;;17.00;59.80;;;;;;5041813;28;19912;-74
2021/03/02 13:46:24;;;;;;;;;;;16.90;59.80;;;;;;5066649;28;19908;-73
2021/03/02 13:48:50;;;;;;;;;;;16.90;59.80;;;;;;5061722;28;19942;-74
2021/03/02 13:51:16;;;;;;;;;;;16.90;59.80;;;;;;5064570;28;19912;-73
2021/03/02 13:53:41;;;;;;;;;;;17.00;59.80;;;;;;5066944;28;19924;-74
2021/03/02 13:56:07;;;;;;;;;;;17.00;59.80;;;;;;5081864;28;19909;-74
2021/03/02 13:58:32;;;;;;;;;;;17.00;59.80;;;;;;5049111;28;20368;-74
2021/03/02 14:00:58;;;;;;;;;;;16.90;59.80;;;;;;5062922;28;19908;-74
2021/03/02 14:03:24;;;;;;;;;;;16.90;59.80;;;;;;5062829;28;19912;-74
2021/03/02 14:05:50;;;;;;;;;;;17.00;59.80;;;;;;5063078;28;19943;-74
2021/03/02 14:08:16;;;;;;;;;;;17.00;59.80;;;;;;5046795;28;19912;-74
2021/03/02 14:10:42;;;;;;;;;;;16.90;59.80;;;;;;5076888;28;20269;-74
2021/03/02 14:13:08;;;;;;;;;;;17.00;59.80;;;;;;5068251;28;20345;-74
2021/03/02 14:15:34;;;;;;;;;;;17.00;59.80;;;;;;5044430;28;19920;-74
2021/03/02 14:18:01;;;;;;;;;;;17.00;59.80;;;;;;5048588;28;19920;-74
2021/03/02 14:20:26;;;;;;;;;;;17.00;59.80;;;;;;5065956;28;19920;-74
2021/03/02 14:22:54;;;;;;;;;;;17.00;59.80;;;;;;5039126;28;19909;-74
2021/03/02 14:25:19;;;;;;;;;;;17.00;59.80;;;;;;5069215;28;19916;-74